createdAt,value
2018-09-29T00:03:08.594Z,102423.00
2018-09-29T00:09:12.517Z,102418.00
2018-09-29T00:15:15.997Z,102422.00
2018-09-29T00:21:19.432Z,102427.00
2018-09-29T00:27:25.462Z,102425.00
2018-09-29T00:33:29.209Z,102418.00
2018-09-29T00:39:33.990Z,102425.00
2018-09-29T00:45:39.048Z,102417.00
2018-09-29T00:51:42.648Z,102408.00
2018-09-29T00:57:46.765Z,102414.00
2018-09-29T01:03:50.190Z,102418.00
2018-09-29T01:09:53.681Z,102405.00
2018-09-29T01:15:57.150Z,102405.00
2018-09-29T01:22:00.626Z,102392.00
2018-09-29T01:28:04.148Z,102387.00
2018-09-29T01:34:07.695Z,102391.00
2018-09-29T01:40:11.194Z,102382.00
2018-09-29T01:46:14.801Z,102386.00
2018-09-29T01:52:18.206Z,102383.00
2018-09-29T01:58:21.614Z,102395.00
2018-09-29T02:04:25.204Z,102388.00
2018-09-29T02:10:28.615Z,102390.00
2018-09-29T02:16:32.144Z,102383.00
2018-09-29T02:22:35.531Z,102388.00
2018-09-29T02:28:38.968Z,102388.00
2018-09-29T02:34:42.422Z,102396.00
2018-09-29T02:40:45.829Z,102383.00
2018-09-29T02:46:49.335Z,102377.00
2018-09-29T02:52:53.424Z,102384.00
2018-09-29T02:58:56.865Z,102375.00
2018-09-29T03:05:00.392Z,102390.00
2018-09-29T03:11:04.981Z,102389.00
2018-09-29T03:17:08.670Z,102390.00
2018-09-29T03:23:12.742Z,102381.00
2018-09-29T03:29:16.089Z,102377.00
2018-09-29T03:35:19.711Z,102383.00
2018-09-29T03:41:23.131Z,102371.00
2018-09-29T03:47:26.693Z,102383.00
2018-09-29T03:53:30.150Z,102376.00
2018-09-29T03:59:33.508Z,102371.00
2018-09-29T04:05:37.013Z,102371.00
2018-09-29T04:11:41.003Z,102374.00
2018-09-29T04:17:44.572Z,102381.00
2018-09-29T04:23:47.941Z,102376.00
2018-09-29T04:29:52.698Z,102382.00
2018-09-29T04:35:56.253Z,102376.00
2018-09-29T04:41:59.638Z,102393.00
2018-09-29T04:48:03.196Z,102386.00
2018-09-29T04:54:06.577Z,102416.00
2018-09-29T05:00:09.969Z,102421.00
2018-09-29T05:06:13.911Z,102423.00
2018-09-29T05:12:17.385Z,102406.00
2018-09-29T05:18:20.787Z,102402.00
2018-09-29T05:24:24.197Z,102411.00
2018-09-29T05:30:27.744Z,102405.00
2018-09-29T05:36:31.202Z,102414.00
2018-09-29T05:42:34.743Z,102423.00
2018-09-29T05:48:38.163Z,102408.00
2018-09-29T05:54:41.585Z,102413.00
2018-09-29T06:00:45.156Z,102417.00
2018-09-29T06:06:49.066Z,102414.00
2018-09-29T06:12:52.938Z,102423.00
2018-09-29T06:18:57.150Z,102421.00
2018-09-29T06:25:00.627Z,102427.00
2018-09-29T06:31:04.060Z,102426.00
2018-09-29T06:37:08.203Z,102425.00
2018-09-29T06:43:11.701Z,102429.00
2018-09-29T06:49:15.297Z,102435.00
2018-09-29T06:55:18.638Z,102418.00
2018-09-29T07:01:22.271Z,102428.00
2018-09-29T07:07:26.280Z,102415.00
2018-09-29T07:13:29.813Z,102420.00
2018-09-29T07:19:33.554Z,102428.00
2018-09-29T07:25:37.268Z,102419.00
2018-09-29T07:31:40.621Z,102419.00
2018-09-29T07:37:44.032Z,102423.00
2018-09-29T07:43:48.716Z,102432.00
2018-09-29T07:49:52.253Z,102407.00
2018-09-29T07:55:55.796Z,102411.00
2018-09-29T08:01:59.571Z,102413.00
2018-09-29T08:08:03.240Z,102414.00
2018-09-29T08:14:06.613Z,102420.00
2018-09-29T08:20:09.999Z,102423.00
2018-09-29T08:26:13.665Z,102414.00
2018-09-29T08:32:17.118Z,102425.00
2018-09-29T08:38:20.599Z,102431.00
2018-09-29T08:44:24.090Z,102428.00
2018-09-29T08:50:28.089Z,102408.00
2018-09-29T08:56:31.564Z,102395.00
2018-09-29T09:02:35.588Z,102394.00
2018-09-29T09:08:39.164Z,102396.00
2018-09-29T09:14:42.536Z,102390.00
2018-09-29T09:20:45.993Z,102385.00
2018-09-29T09:26:49.628Z,102375.00
2018-09-29T09:32:53.036Z,102368.00
2018-09-29T09:38:56.479Z,102361.00
2018-09-29T09:44:59.953Z,102344.00
2018-09-29T09:51:03.428Z,102347.00
2018-09-29T09:57:06.950Z,102334.00
2018-09-29T10:03:16.499Z,102332.00
2018-09-29T10:09:19.979Z,102330.00
2018-09-29T10:15:23.411Z,102314.00
2018-09-29T10:21:26.923Z,102307.00
2018-09-29T10:27:30.379Z,102292.00
2018-09-29T10:33:33.796Z,102281.00
2018-09-29T10:39:37.332Z,102285.00
2018-09-29T10:45:40.792Z,102284.00
2018-09-29T10:51:44.247Z,102281.00
2018-09-29T10:57:47.656Z,102275.00
2018-09-29T11:03:50.995Z,102258.00
2018-09-29T11:09:55.563Z,102254.00
2018-09-29T11:15:59.076Z,102250.00
2018-09-29T11:22:02.522Z,102221.00
2018-09-29T11:28:05.951Z,102226.00
2018-09-29T11:34:09.391Z,102196.00
2018-09-29T11:40:13.498Z,102197.00
2018-09-29T11:46:17.164Z,102190.00
2018-09-29T11:52:20.871Z,102169.00
2018-09-29T11:58:24.696Z,102164.00
2018-09-29T12:04:28.744Z,102154.00
2018-09-29T12:10:32.127Z,102142.00
2018-09-29T12:16:35.896Z,102140.00
2018-09-29T12:22:39.357Z,102125.00
2018-09-29T12:28:42.888Z,102111.00
2018-09-29T12:34:46.321Z,102118.00
2018-09-29T12:40:49.745Z,102104.00
2018-09-29T12:46:53.197Z,102103.00
2018-09-29T12:52:56.776Z,102081.00
2018-09-29T12:59:01.060Z,102082.00
2018-09-29T13:05:04.702Z,102064.00
2018-09-29T13:11:08.337Z,102064.00
2018-09-29T13:17:11.713Z,102057.00
2018-09-29T13:23:15.341Z,102044.00
2018-09-29T13:29:21.249Z,102031.00
2018-09-29T13:35:25.378Z,102022.00
2018-09-29T13:41:29.076Z,102021.00
2018-09-29T13:47:32.891Z,102007.00
2018-09-29T13:53:36.490Z,102006.00
2018-09-29T13:59:39.997Z,101995.00
2018-09-29T14:05:43.410Z,101979.00
2018-09-29T14:11:46.924Z,101972.00
2018-09-29T14:17:50.436Z,101968.00
2018-09-29T14:23:54.001Z,101952.00
2018-09-29T14:29:58.868Z,101948.00
2018-09-29T14:36:02.327Z,101929.00
2018-09-29T14:42:06.175Z,101921.00
2018-09-29T14:48:09.692Z,101911.00
2018-09-29T14:54:13.478Z,101906.00
2018-09-29T15:00:17.196Z,101902.00
2018-09-29T15:06:20.569Z,101900.00
2018-09-29T15:12:24.160Z,101895.00
2018-09-29T15:18:27.530Z,101885.00
2018-09-29T15:24:31.737Z,101874.00
2018-09-29T15:30:35.242Z,101864.00
2018-09-29T15:36:38.687Z,101870.00
2018-09-29T15:42:42.161Z,101858.00
2018-09-29T15:48:45.615Z,101854.00
2018-09-29T15:54:49.066Z,101846.00
2018-09-29T16:00:52.492Z,101840.00
2018-09-29T16:06:55.962Z,101839.00
2018-09-29T16:12:59.434Z,101838.00
2018-09-29T16:19:02.850Z,101823.00
2018-09-29T16:25:06.666Z,101817.00
2018-09-29T16:31:10.088Z,101814.00
2018-09-29T16:37:13.531Z,101804.00
2018-09-29T16:43:16.959Z,101803.00
2018-09-29T16:49:21.268Z,101802.00
2018-09-29T16:55:26.071Z,101803.00
2018-09-29T17:01:29.704Z,101801.00
2018-09-29T17:07:33.127Z,101794.00
2018-09-29T17:13:37.341Z,101792.00
2018-09-29T17:19:40.796Z,101786.00
2018-09-29T17:25:44.185Z,101799.00
2018-09-29T17:31:47.857Z,101805.00
2018-09-29T17:37:51.393Z,101799.00
2018-09-29T17:43:54.799Z,101778.00
2018-09-29T17:49:58.200Z,101792.00
2018-09-29T17:56:01.893Z,101786.00
2018-09-29T18:02:05.987Z,101780.00
2018-09-29T18:08:09.432Z,101765.00
2018-09-29T18:14:12.861Z,101765.00
2018-09-29T18:20:16.260Z,101764.00
2018-09-29T18:26:19.843Z,101760.00
2018-09-29T18:32:23.541Z,101758.00
2018-09-29T18:38:26.982Z,101775.00
2018-09-29T18:44:30.546Z,101774.00
2018-09-29T18:50:33.984Z,101769.00
2018-09-29T18:56:37.451Z,101773.00
2018-09-29T19:02:40.946Z,101766.00
2018-09-29T19:08:45.228Z,101771.00
2018-09-29T19:14:49.437Z,101732.00
2018-09-29T19:20:52.875Z,101787.00
2018-09-29T19:26:56.465Z,101778.00
2018-09-29T19:32:59.983Z,101775.00
2018-09-29T19:39:06.037Z,101763.00
2018-09-29T19:45:09.579Z,101765.00
2018-09-29T19:51:13.261Z,101764.00
2018-09-29T19:57:16.911Z,101760.00
2018-09-29T20:03:20.412Z,101754.00
2018-09-29T20:09:23.831Z,101745.00
2018-09-29T20:15:27.405Z,101736.00
2018-09-29T20:21:31.087Z,101740.00
2018-09-29T20:27:34.553Z,101742.00
2018-09-29T20:33:38.009Z,101724.00
2018-09-29T20:39:41.567Z,101734.00
2018-09-29T20:45:45.268Z,101720.00
2018-09-29T20:51:49.749Z,101712.00
2018-09-29T20:57:53.464Z,101713.00
2018-09-29T21:03:56.953Z,101704.00
2018-09-29T21:10:00.480Z,101703.00
2018-09-29T21:16:03.963Z,101691.00
2018-09-29T21:22:07.554Z,101673.00
2018-09-29T21:28:11.081Z,101674.00
2018-09-29T21:34:15.747Z,101657.00
2018-09-29T21:40:19.450Z,101656.00
2018-09-29T21:46:23.208Z,101646.00
2018-09-29T21:52:27.029Z,101645.00
2018-09-29T21:58:30.606Z,101632.00
2018-09-29T22:04:34.243Z,101618.00
2018-09-29T22:10:38.013Z,101614.00
2018-09-29T22:16:41.449Z,101614.00
2018-09-29T22:22:44.969Z,101602.00
2018-09-29T22:28:48.466Z,101588.00
2018-09-29T22:34:52.219Z,101587.00
2018-09-29T22:40:56.036Z,101577.00
2018-09-29T22:47:00.481Z,101575.00
2018-09-29T22:53:03.877Z,101577.00
2018-09-29T22:59:07.687Z,101585.00
2018-09-29T23:05:11.184Z,101568.00
2018-09-29T23:11:15.467Z,101578.00
2018-09-29T23:17:18.920Z,101593.00
2018-09-29T23:23:23.137Z,101586.00
2018-09-29T23:29:26.581Z,101582.00
2018-09-29T23:35:30.033Z,101584.00
2018-09-29T23:41:33.439Z,101579.00
2018-09-29T23:47:36.973Z,101561.00
2018-09-29T23:53:40.328Z,101555.00
2018-09-29T23:59:43.750Z,101557.00
